createdAt,value
2019-05-17T00:02:00.969Z,1.00
2019-05-17T00:04:31.809Z,0.00
2019-05-17T00:07:02.054Z,1.20
2019-05-17T00:09:32.186Z,0.40
2019-05-17T00:12:02.696Z,1.00
2019-05-17T00:14:33.113Z,1.00
2019-05-17T00:17:03.245Z,0.00
2019-05-17T00:19:33.743Z,2.40
2019-05-17T00:22:04.003Z,2.00
2019-05-17T00:24:34.215Z,2.00
2019-05-17T00:27:06.568Z,0.00
2019-05-17T00:29:37.177Z,2.00
2019-05-17T00:32:07.523Z,2.00
2019-05-17T00:34:38.063Z,2.20
2019-05-17T00:37:08.293Z,1.40
2019-05-17T00:39:38.297Z,1.80
2019-05-17T00:42:09.029Z,1.00
2019-05-17T00:44:39.684Z,1.00
2019-05-17T00:47:09.769Z,1.20
2019-05-17T00:49:40.097Z,0.60
2019-05-17T00:52:10.693Z,1.00
2019-05-17T00:54:40.835Z,1.00
2019-05-17T00:57:11.072Z,1.00
2019-05-17T00:59:41.615Z,1.20
2019-05-17T01:02:12.129Z,2.40
2019-05-17T01:04:42.273Z,2.00
2019-05-17T01:07:12.887Z,1.00
2019-05-17T01:09:43.016Z,1.20
2019-05-17T01:12:13.332Z,2.00
2019-05-17T01:14:43.656Z,1.60
2019-05-17T01:17:16.396Z,2.00
2019-05-17T01:19:47.163Z,1.40
2019-05-17T01:22:17.524Z,1.40
2019-05-17T01:24:47.731Z,3.20
2019-05-17T01:27:18.026Z,2.40
2019-05-17T01:29:48.573Z,3.00
2019-05-17T01:32:18.807Z,2.40
2019-05-17T01:34:49.232Z,2.00
2019-05-17T01:37:20.421Z,2.00
2019-05-17T01:39:50.598Z,2.60
2019-05-17T01:42:20.996Z,3.00
2019-05-17T01:44:51.130Z,3.00
2019-05-17T01:47:21.949Z,3.60
2019-05-17T01:49:52.690Z,3.20
2019-05-17T01:52:23.534Z,3.00
2019-05-17T01:54:53.797Z,4.00
2019-05-17T01:57:24.377Z,4.00
2019-05-17T01:59:54.499Z,5.20
2019-05-17T02:02:26.983Z,4.00
2019-05-17T02:04:57.526Z,2.80
2019-05-17T02:07:28.317Z,6.00
2019-05-17T02:09:58.496Z,4.20
2019-05-17T02:12:28.989Z,3.20
2019-05-17T02:14:59.251Z,6.40
2019-05-17T02:17:29.528Z,6.80
2019-05-17T02:20:00.665Z,3.40
2019-05-17T02:22:31.144Z,7.00
2019-05-17T02:25:01.349Z,5.60
2019-05-17T02:27:38.240Z,4.20
2019-05-17T02:30:05.868Z,4.20
2019-05-17T02:32:36.212Z,4.00
2019-05-17T02:35:06.924Z,4.60
2019-05-17T02:37:37.466Z,5.40
2019-05-17T02:40:08.917Z,3.00
2019-05-17T02:42:42.298Z,6.60
2019-05-17T02:45:13.271Z,7.00
2019-05-17T02:47:43.630Z,8.60
2019-05-17T02:50:14.307Z,6.60
2019-05-17T02:52:44.842Z,6.40
2019-05-17T02:55:15.358Z,5.20
2019-05-17T02:57:45.695Z,6.00
2019-05-17T03:00:17.027Z,5.00
2019-05-17T03:02:47.266Z,7.00
2019-05-17T03:05:17.447Z,3.00
2019-05-17T03:07:47.821Z,7.60
2019-05-17T03:10:25.339Z,7.20
2019-05-17T03:12:52.742Z,2.00
2019-05-17T03:15:23.584Z,3.40
2019-05-17T03:17:53.905Z,7.00
2019-05-17T03:20:24.725Z,7.00
2019-05-17T03:22:54.862Z,9.00
2019-05-17T03:25:24.867Z,6.80
2019-05-17T03:27:55.159Z,9.20
2019-05-17T03:30:26.351Z,7.20
2019-05-17T03:32:57.049Z,7.40
2019-05-17T03:35:27.595Z,6.00
2019-05-17T03:37:57.821Z,7.00
2019-05-17T03:40:56.548Z,7.80
2019-05-17T03:43:02.846Z,6.20
2019-05-17T03:45:33.995Z,10.20
2019-05-17T03:48:05.151Z,9.20
2019-05-17T03:50:35.980Z,8.40
2019-05-17T03:53:05.997Z,12.00
2019-05-17T03:55:36.208Z,9.80
2019-05-17T03:58:06.819Z,9.20
2019-05-17T04:00:37.274Z,9.00
2019-05-17T04:03:07.193Z,9.40
2019-05-17T04:05:38.041Z,9.40
2019-05-17T04:08:08.397Z,8.00
2019-05-17T04:10:38.710Z,9.40
2019-05-17T04:13:08.682Z,9.20
2019-05-17T04:15:38.913Z,12.00
2019-05-17T04:18:12.757Z,7.80
2019-05-17T04:20:43.370Z,7.40
2019-05-17T04:23:12.876Z,6.80
2019-05-17T04:25:43.770Z,6.20
2019-05-17T04:28:14.166Z,4.40
2019-05-17T04:30:44.463Z,8.60
2019-05-17T04:33:14.589Z,6.60
2019-05-17T04:35:45.201Z,6.00
2019-05-17T04:38:15.353Z,6.00
2019-05-17T04:40:45.888Z,7.80
2019-05-17T04:43:16.172Z,7.80
2019-05-17T04:45:47.255Z,12.20
2019-05-17T04:48:17.909Z,5.20
2019-05-17T04:50:48.607Z,7.60
2019-05-17T04:53:18.662Z,10.80
2019-05-17T04:55:49.273Z,8.00
2019-05-17T04:58:23.029Z,8.80
2019-05-17T05:00:53.653Z,13.00
2019-05-17T05:03:24.276Z,12.80
2019-05-17T05:05:54.771Z,13.20
2019-05-17T05:08:24.908Z,9.00
2019-05-17T05:10:55.210Z,10.80
2019-05-17T05:13:25.751Z,14.40
2019-05-17T05:15:56.208Z,13.00
2019-05-17T05:18:26.828Z,14.00
2019-05-17T05:20:57.069Z,12.80
2019-05-17T05:23:27.171Z,14.00
2019-05-17T05:25:57.785Z,12.00
2019-05-17T05:28:28.300Z,11.20
2019-05-17T05:30:58.760Z,11.00
2019-05-17T05:33:29.053Z,13.40
2019-05-17T05:35:59.403Z,12.40
2019-05-17T05:38:31.795Z,13.00
2019-05-17T05:41:01.975Z,10.60
2019-05-17T05:43:32.858Z,10.20
2019-05-17T05:46:03.757Z,12.00
2019-05-17T05:48:34.789Z,12.60
2019-05-17T05:51:05.409Z,13.40
2019-05-17T05:53:36.327Z,13.60
2019-05-17T05:56:07.045Z,9.60
2019-05-17T05:58:37.667Z,10.00
2019-05-17T06:01:08.813Z,14.80
2019-05-17T06:03:41.328Z,6.80
2019-05-17T06:06:12.339Z,13.00
2019-05-17T06:08:42.479Z,12.40
2019-05-17T06:11:12.790Z,12.40
2019-05-17T06:13:42.887Z,13.80
2019-05-17T06:16:12.847Z,14.00
2019-05-17T06:18:42.842Z,10.00
2019-05-17T06:21:13.952Z,11.20
2019-05-17T06:23:44.255Z,8.20
2019-05-17T06:26:17.885Z,9.60
2019-05-17T06:28:46.516Z,10.20
2019-05-17T06:31:16.737Z,13.00
2019-05-17T06:33:46.985Z,10.40
2019-05-17T06:36:17.436Z,9.20
2019-05-17T06:38:47.722Z,10.40
2019-05-17T06:41:17.893Z,11.00
2019-05-17T06:43:48.318Z,9.60
2019-05-17T06:46:18.406Z,9.80
2019-05-17T06:48:49.160Z,8.00
2019-05-17T06:51:21.948Z,8.80
2019-05-17T06:53:52.367Z,7.40
2019-05-17T06:56:23.056Z,7.80
2019-05-17T06:58:53.578Z,8.00
2019-05-17T07:01:29.203Z,8.40
2019-05-17T07:04:00.324Z,9.00
2019-05-17T07:06:32.348Z,8.60
2019-05-17T07:09:04.088Z,10.20
2019-05-17T07:11:34.600Z,8.80
2019-05-17T07:14:05.418Z,10.40
2019-05-17T07:16:35.892Z,9.00
2019-05-17T07:19:06.625Z,8.60
2019-05-17T07:21:37.097Z,7.80
2019-05-17T07:24:07.265Z,8.40
2019-05-17T07:26:39.375Z,11.20
2019-05-17T07:29:10.106Z,11.40
2019-05-17T07:31:41.048Z,12.60
2019-05-17T07:34:11.198Z,11.00
2019-05-17T07:36:42.547Z,9.40
2019-05-17T07:39:12.974Z,10.00
2019-05-17T07:41:43.096Z,9.00
2019-05-17T07:44:14.318Z,10.60
2019-05-17T07:46:45.060Z,5.20
2019-05-17T07:49:15.585Z,10.00
2019-05-17T07:51:46.078Z,10.00
2019-05-17T07:54:16.201Z,8.00
2019-05-17T07:56:46.492Z,7.20
2019-05-17T07:59:16.705Z,7.80
2019-05-17T08:01:46.949Z,3.40
2019-05-17T08:04:17.061Z,4.80
2019-05-17T08:06:47.282Z,7.00
2019-05-17T08:09:20.327Z,2.00
2019-05-17T08:11:50.269Z,3.20
2019-05-17T08:14:29.883Z,3.40
2019-05-17T08:16:52.160Z,7.00
2019-05-17T08:19:23.124Z,8.00
2019-05-17T08:21:53.311Z,7.40
2019-05-17T08:24:23.849Z,7.00
2019-05-17T08:26:54.163Z,6.60
2019-05-17T08:30:20.063Z,7.60
2019-05-17T08:32:50.499Z,4.00
2019-05-17T08:35:22.164Z,3.00
2019-05-17T08:37:52.727Z,4.00
2019-05-17T08:40:23.543Z,3.60
2019-05-17T08:42:53.695Z,3.80
2019-05-17T08:45:24.217Z,2.60
2019-05-17T08:47:54.825Z,2.00
2019-05-17T08:50:26.377Z,2.60
2019-05-17T08:52:56.488Z,2.20
2019-05-17T08:55:26.636Z,2.00
2019-05-17T08:57:56.840Z,3.00
2019-05-17T09:00:27.094Z,0.00
2019-05-17T09:02:59.954Z,0.00
2019-05-17T09:05:30.222Z,2.60
2019-05-17T09:08:01.105Z,2.00
2019-05-17T09:10:31.320Z,0.80
2019-05-17T09:13:01.581Z,2.40
2019-05-17T09:15:32.385Z,2.00
2019-05-17T09:18:02.620Z,2.00
2019-05-17T09:20:32.949Z,0.60
2019-05-17T09:23:03.244Z,0.00
2019-05-17T09:25:33.606Z,1.40
2019-05-17T09:28:03.911Z,2.60
2019-05-17T09:30:34.733Z,0.00
2019-05-17T09:33:04.854Z,0.20
2019-05-17T09:35:35.153Z,0.00
2019-05-17T09:38:05.305Z,1.00
2019-05-17T09:40:35.541Z,1.00
2019-05-17T09:43:06.186Z,0.00
2019-05-17T09:45:36.368Z,0.00
2019-05-17T09:48:06.898Z,1.00
2019-05-17T09:50:39.629Z,2.00
2019-05-17T09:53:10.839Z,0.00
2019-05-17T09:55:41.577Z,1.00
2019-05-17T09:58:12.089Z,0.00
2019-05-17T10:00:42.325Z,0.60
2019-05-17T10:03:12.545Z,0.00
2019-05-17T10:05:43.057Z,0.80
2019-05-17T10:08:13.295Z,0.00
2019-05-17T10:10:43.437Z,0.00
2019-05-17T10:13:13.748Z,0.00
2019-05-17T10:15:43.864Z,1.00
2019-05-17T10:18:14.695Z,0.00
2019-05-17T10:20:45.033Z,0.00
2019-05-17T10:23:15.527Z,0.00
2019-05-17T10:25:45.824Z,0.00
2019-05-17T10:28:15.898Z,0.00
2019-05-17T10:30:46.509Z,1.00
2019-05-17T10:33:17.042Z,0.00
2019-05-17T10:35:49.559Z,0.00
2019-05-17T10:38:20.368Z,0.00
2019-05-17T10:40:50.677Z,0.20
2019-05-17T10:43:21.549Z,1.00
2019-05-17T10:45:52.129Z,0.00
2019-05-17T10:48:22.645Z,1.00
2019-05-17T10:50:52.908Z,0.00
2019-05-17T10:53:23.309Z,0.00
2019-05-17T10:55:53.793Z,0.40
2019-05-17T10:58:24.409Z,0.60
2019-05-17T11:00:54.990Z,0.00
2019-05-17T11:03:25.537Z,0.20
2019-05-17T11:05:55.771Z,0.00
2019-05-17T11:08:25.893Z,0.60
2019-05-17T11:10:56.107Z,0.60
2019-05-17T11:13:26.933Z,1.00
2019-05-17T11:15:57.767Z,0.80
2019-05-17T11:18:28.116Z,1.00
2019-05-17T11:20:58.613Z,0.00
2019-05-17T11:23:28.746Z,0.20
2019-05-17T11:25:59.114Z,1.00
2019-05-17T11:28:29.604Z,1.00
2019-05-17T11:31:00.329Z,0.00
2019-05-17T11:33:30.856Z,1.00
2019-05-17T11:36:01.192Z,1.00
2019-05-17T11:38:31.318Z,1.20
2019-05-17T11:41:18.433Z,0.00
2019-05-17T11:43:33.303Z,0.00
2019-05-17T11:46:04.136Z,0.00
2019-05-17T11:48:34.945Z,1.00
2019-05-17T11:51:05.185Z,1.20
2019-05-17T11:53:35.797Z,1.00
2019-05-17T11:56:05.939Z,1.00
2019-05-17T11:58:37.152Z,1.00
2019-05-17T12:01:07.393Z,1.00
2019-05-17T12:03:37.929Z,1.00
2019-05-17T12:06:08.436Z,1.00
2019-05-17T12:08:38.965Z,1.00
2019-05-17T12:11:09.708Z,1.00
2019-05-17T12:13:43.374Z,1.00
2019-05-17T12:16:12.105Z,0.20
2019-05-17T12:18:42.546Z,0.60
2019-05-17T12:21:13.761Z,0.00
2019-05-17T12:23:44.376Z,0.40
2019-05-17T12:26:14.537Z,1.00
2019-05-17T12:28:45.370Z,1.00
2019-05-17T12:31:15.587Z,0.80
2019-05-17T12:33:46.386Z,1.00
2019-05-17T12:36:16.830Z,1.00
2019-05-17T12:38:47.461Z,0.80
2019-05-17T12:41:17.608Z,1.60
2019-05-17T12:43:48.527Z,0.40
2019-05-17T12:46:18.641Z,1.80
2019-05-17T12:48:49.016Z,1.00
2019-05-17T12:51:19.404Z,1.00
2019-05-17T12:53:49.707Z,0.60
2019-05-17T12:56:20.150Z,1.00
2019-05-17T12:58:51.385Z,0.40
2019-05-17T13:01:21.981Z,0.60
2019-05-17T13:03:52.177Z,1.80
2019-05-17T13:06:22.746Z,2.40
2019-05-17T13:08:52.789Z,1.20
2019-05-17T13:11:24.347Z,1.60
2019-05-17T13:13:54.865Z,0.80
2019-05-17T13:16:25.090Z,1.80
2019-05-17T13:18:55.633Z,0.20
2019-05-17T13:21:25.954Z,1.00
2019-05-17T13:23:56.399Z,1.00
2019-05-17T13:26:26.529Z,1.00
2019-05-17T13:28:57.335Z,1.00
2019-05-17T13:31:28.040Z,1.20
2019-05-17T13:33:58.416Z,1.00
2019-05-17T13:36:29.004Z,2.80
2019-05-17T13:38:59.543Z,2.00
2019-05-17T13:41:29.796Z,0.00
2019-05-17T13:44:00.301Z,2.00
2019-05-17T13:46:33.265Z,1.00
2019-05-17T13:49:02.261Z,1.00
2019-05-17T13:51:32.513Z,2.00
2019-05-17T13:54:02.608Z,2.00
2019-05-17T13:56:32.945Z,1.60
2019-05-17T13:59:03.087Z,2.00
2019-05-17T14:01:33.513Z,1.00
2019-05-17T14:04:04.264Z,1.00
2019-05-17T14:06:34.641Z,2.00
2019-05-17T14:09:06.285Z,1.80
2019-05-17T14:11:36.733Z,2.00
2019-05-17T14:14:06.971Z,0.80
2019-05-17T14:16:37.373Z,1.60
2019-05-17T14:19:08.211Z,2.00
2019-05-17T14:21:38.971Z,1.00
2019-05-17T14:24:09.924Z,1.80
2019-05-17T14:26:40.305Z,2.00
2019-05-17T14:29:10.721Z,2.00
2019-05-17T14:31:40.983Z,1.00
2019-05-17T14:34:11.493Z,2.60
2019-05-17T14:36:41.622Z,0.00
2019-05-17T14:39:11.830Z,1.00
2019-05-17T14:41:42.177Z,0.80
2019-05-17T14:44:12.690Z,2.00
2019-05-17T14:46:43.211Z,1.00
2019-05-17T14:49:13.947Z,1.00
2019-05-17T14:51:44.453Z,1.20
2019-05-17T14:54:15.140Z,1.20
2019-05-17T14:56:45.352Z,2.00
2019-05-17T14:59:15.436Z,1.80
2019-05-17T15:01:45.693Z,2.60
2019-05-17T15:04:15.991Z,2.80
2019-05-17T15:06:47.125Z,1.00
2019-05-17T15:09:17.354Z,1.60
2019-05-17T15:11:47.862Z,1.00
2019-05-17T15:14:18.075Z,1.20
2019-05-17T15:16:48.543Z,2.00
2019-05-17T15:19:18.960Z,1.20
2019-05-17T15:21:49.096Z,0.20
2019-05-17T15:24:19.810Z,1.00
2019-05-17T15:27:04.249Z,1.00
2019-05-17T15:29:22.808Z,1.00
2019-05-17T15:31:53.085Z,1.20
2019-05-17T15:34:24.511Z,1.60
2019-05-17T15:36:55.008Z,1.20
2019-05-17T15:39:25.164Z,2.00
2019-05-17T15:41:55.428Z,2.00
2019-05-17T15:44:27.131Z,1.00
2019-05-17T15:46:57.732Z,1.20
2019-05-17T15:49:27.887Z,1.20
2019-05-17T15:51:58.128Z,0.20
2019-05-17T15:54:28.917Z,1.40
2019-05-17T15:56:59.757Z,1.00
2019-05-17T15:59:30.379Z,1.00
2019-05-17T16:02:00.536Z,1.60
2019-05-17T16:04:30.788Z,0.80
2019-05-17T16:07:01.350Z,1.00
2019-05-17T16:09:32.404Z,1.20
2019-05-17T16:12:03.640Z,0.60
2019-05-17T16:14:33.857Z,1.20
2019-05-17T16:17:04.005Z,3.00
2019-05-17T16:19:34.227Z,2.40
2019-05-17T16:22:04.459Z,1.00
2019-05-17T16:24:35.266Z,1.00
2019-05-17T16:27:05.494Z,1.20
2019-05-17T16:29:36.329Z,0.00
2019-05-17T16:32:06.536Z,1.00
2019-05-17T16:34:37.566Z,1.00
2019-05-17T16:37:07.694Z,2.00
2019-05-17T16:39:37.816Z,2.00
2019-05-17T16:42:08.072Z,2.20
2019-05-17T16:44:38.264Z,0.80
2019-05-17T16:47:10.336Z,1.00
2019-05-17T16:49:40.602Z,2.00
2019-05-17T16:52:11.181Z,1.40
2019-05-17T16:54:41.708Z,1.00
2019-05-17T16:57:12.444Z,1.40
2019-05-17T16:59:42.728Z,1.80
2019-05-17T17:02:13.007Z,2.00
2019-05-17T17:04:43.225Z,1.60
2019-05-17T17:07:13.351Z,1.60
2019-05-17T17:09:44.163Z,1.00
2019-05-17T17:12:14.705Z,1.00
2019-05-17T17:14:44.921Z,1.60
2019-05-17T17:17:15.267Z,2.00
2019-05-17T17:19:45.712Z,1.00
2019-05-17T17:22:16.295Z,0.80
2019-05-17T17:24:47.212Z,1.20
2019-05-17T17:27:17.265Z,2.00
2019-05-17T17:29:47.593Z,1.00
2019-05-17T17:32:21.621Z,1.00
2019-05-17T17:34:49.593Z,1.80
2019-05-17T17:37:20.484Z,2.40
2019-05-17T17:39:53.231Z,1.00
2019-05-17T17:42:23.220Z,1.00
2019-05-17T17:44:53.437Z,2.80
2019-05-17T17:47:24.255Z,2.20
2019-05-17T17:49:55.085Z,1.00
2019-05-17T17:52:25.302Z,2.00
2019-05-17T17:54:55.553Z,1.40
2019-05-17T17:57:25.884Z,2.00
2019-05-17T17:59:55.841Z,2.00
2019-05-17T18:02:26.294Z,3.00
2019-05-17T18:04:56.457Z,2.00
2019-05-17T18:07:27.345Z,2.00
2019-05-17T18:09:57.880Z,3.00
2019-05-17T18:12:28.418Z,3.00
2019-05-17T18:15:03.438Z,2.00
2019-05-17T18:17:39.020Z,2.00
2019-05-17T18:20:03.933Z,4.20
2019-05-17T18:22:34.133Z,1.00
2019-05-17T18:25:04.949Z,3.00
2019-05-17T18:27:35.237Z,3.20
2019-05-17T18:30:06.998Z,4.00
2019-05-17T18:32:37.159Z,3.40
2019-05-17T18:35:08.120Z,2.40
2019-05-17T18:37:38.208Z,5.80
2019-05-17T18:40:08.620Z,2.80
2019-05-17T18:42:38.801Z,4.00
2019-05-17T18:45:09.573Z,2.60
2019-05-17T18:47:39.904Z,4.00
2019-05-17T18:50:10.160Z,2.40
2019-05-17T18:52:40.468Z,5.80
2019-05-17T18:55:11.078Z,4.80
2019-05-17T18:57:41.632Z,8.00
2019-05-17T19:00:12.969Z,1.60
2019-05-17T19:02:43.348Z,3.40
2019-05-17T19:05:13.740Z,5.40
2019-05-17T19:07:43.933Z,4.00
2019-05-17T19:10:14.561Z,3.80
2019-05-17T19:12:44.773Z,4.40
2019-05-17T19:15:15.023Z,2.20
2019-05-17T19:17:46.019Z,4.00
2019-05-17T19:20:16.582Z,0.80
2019-05-17T19:22:47.231Z,5.00
2019-05-17T19:25:17.312Z,2.00
2019-05-17T19:27:47.963Z,3.00
2019-05-17T19:30:18.688Z,4.00
2019-05-17T19:32:50.243Z,2.20
2019-05-17T19:35:20.815Z,2.20
2019-05-17T19:37:50.892Z,3.00
2019-05-17T19:40:21.545Z,2.80
2019-05-17T19:42:52.344Z,1.20
2019-05-17T19:45:22.889Z,3.00
2019-05-17T19:47:53.622Z,2.00
2019-05-17T19:50:24.160Z,2.40
2019-05-17T19:52:54.776Z,2.00
2019-05-17T19:55:25.034Z,4.00
2019-05-17T19:57:55.751Z,5.00
2019-05-17T20:00:26.573Z,2.00
2019-05-17T20:02:56.816Z,2.00
2019-05-17T20:05:27.480Z,3.00
2019-05-17T20:07:57.569Z,2.00
2019-05-17T20:10:27.797Z,3.60
2019-05-17T20:12:58.121Z,1.80
2019-05-17T20:15:34.471Z,2.00
2019-05-17T20:18:00.074Z,2.40
2019-05-17T20:20:30.914Z,1.80
2019-05-17T20:23:01.037Z,2.00
2019-05-17T20:25:31.274Z,3.00
2019-05-17T20:28:01.514Z,3.00
2019-05-17T20:30:32.092Z,1.20
2019-05-17T20:33:03.021Z,2.00
2019-05-17T20:35:33.065Z,3.00
2019-05-17T20:38:03.481Z,2.80
2019-05-17T20:40:33.499Z,2.20
2019-05-17T20:43:03.828Z,3.60
2019-05-17T20:45:34.042Z,2.00
2019-05-17T20:48:04.163Z,2.80
2019-05-17T20:50:34.814Z,2.00
2019-05-17T20:53:18.017Z,2.80
2019-05-17T20:55:37.067Z,2.00
2019-05-17T20:58:07.240Z,1.00
2019-05-17T21:00:37.829Z,2.00
2019-05-17T21:03:07.978Z,1.00
2019-05-17T21:05:38.214Z,1.00
2019-05-17T21:08:08.384Z,2.40
2019-05-17T21:10:38.642Z,2.00
2019-05-17T21:13:09.269Z,2.00
2019-05-17T21:15:47.422Z,2.00
2019-05-17T21:18:11.430Z,2.20
2019-05-17T21:20:42.087Z,2.00
2019-05-17T21:23:12.801Z,2.00
2019-05-17T21:25:44.033Z,2.20
2019-05-17T21:28:14.164Z,2.00
2019-05-17T21:30:44.786Z,2.00
2019-05-17T21:33:15.062Z,2.00
2019-05-17T21:35:45.324Z,2.00
2019-05-17T21:38:15.558Z,2.40
2019-05-17T21:40:45.604Z,2.00
2019-05-17T21:43:15.833Z,1.00
2019-05-17T21:45:46.853Z,2.00
2019-05-17T21:48:17.570Z,3.00
2019-05-17T21:50:47.787Z,1.60
2019-05-17T21:53:18.309Z,1.80
2019-05-17T21:55:48.625Z,2.00
2019-05-17T21:58:20.408Z,2.00
2019-05-17T22:01:05.797Z,1.00
2019-05-17T22:03:36.051Z,3.00
2019-05-17T22:06:06.629Z,3.60
2019-05-17T22:08:36.951Z,3.00
2019-05-17T22:11:07.202Z,2.20
2019-05-17T22:13:38.211Z,1.80
2019-05-17T22:16:19.034Z,1.20
2019-05-17T22:18:40.100Z,2.40
2019-05-17T22:21:10.318Z,2.00
2019-05-17T22:23:40.833Z,3.00
2019-05-17T22:26:11.068Z,1.60
2019-05-17T22:28:41.612Z,1.20
2019-05-17T22:31:11.843Z,1.00
2019-05-17T22:33:42.450Z,2.00
2019-05-17T22:36:12.973Z,2.00
2019-05-17T22:38:43.084Z,2.00
2019-05-17T22:41:13.428Z,1.00
2019-05-17T22:43:43.563Z,0.00
2019-05-17T22:46:13.762Z,2.00
2019-05-17T22:48:43.696Z,1.80
2019-05-17T22:51:14.118Z,1.00
2019-05-17T22:53:45.213Z,1.00
2019-05-17T22:56:15.397Z,1.00
2019-05-17T22:58:45.792Z,1.80
2019-05-17T23:01:16.137Z,2.00
2019-05-17T23:03:46.481Z,1.00
2019-05-17T23:06:16.905Z,1.00
2019-05-17T23:08:47.079Z,1.80
2019-05-17T23:11:17.649Z,1.80
2019-05-17T23:13:48.135Z,1.80
2019-05-17T23:16:18.286Z,1.20
2019-05-17T23:18:56.657Z,0.80
2019-05-17T23:21:26.854Z,1.00
2019-05-17T23:23:57.323Z,0.60
2019-05-17T23:26:27.861Z,1.20
2019-05-17T23:28:57.971Z,0.60
2019-05-17T23:31:28.317Z,2.00
2019-05-17T23:33:58.420Z,1.00
2019-05-17T23:36:28.633Z,2.80
2019-05-17T23:38:59.084Z,2.00
2019-05-17T23:41:29.511Z,2.80
2019-05-17T23:44:00.243Z,1.00
2019-05-17T23:46:30.852Z,1.00
2019-05-17T23:49:00.991Z,1.80
2019-05-17T23:51:31.596Z,1.00
2019-05-17T23:54:01.746Z,1.00
2019-05-17T23:56:31.970Z,2.00
2019-05-17T23:59:02.283Z,2.00
